createdAt,value
2023-05-01T00:01:12.133Z,7.51
2023-05-01T00:04:14.968Z,7.44
2023-05-01T00:07:17.765Z,7.38
2023-05-01T00:10:20.441Z,7.39
2023-05-01T00:13:24.572Z,7.36
2023-05-01T00:16:27.142Z,7.61
2023-05-01T00:19:29.871Z,7.69
2023-05-01T00:22:32.547Z,8.09
2023-05-01T00:25:35.177Z,8.40
2023-05-01T00:28:37.694Z,8.46
2023-05-01T00:31:42.447Z,8.51
2023-05-01T00:34:47.929Z,8.36
2023-05-01T00:37:50.866Z,8.51
2023-05-01T00:40:53.548Z,8.66
2023-05-01T00:43:56.640Z,8.88
2023-05-01T00:47:01.073Z,9.09
2023-05-01T00:50:05.311Z,8.99
2023-05-01T00:53:07.971Z,9.26
2023-05-01T00:56:11.716Z,9.34
2023-05-01T00:59:14.760Z,9.36
2023-05-01T01:02:17.464Z,9.44
2023-05-01T01:05:21.992Z,9.44
2023-05-01T01:08:33.735Z,9.50
2023-05-01T01:11:51.837Z,9.63
2023-05-01T01:15:21.605Z,9.69
2023-05-01T01:18:33.305Z,9.69
2023-05-01T01:21:41.448Z,9.77
2023-05-01T01:24:59.606Z,9.85
2023-05-01T01:28:25.012Z,9.85
2023-05-01T01:31:33.462Z,9.96
2023-05-01T01:34:50.656Z,9.97
2023-05-01T01:38:09.774Z,10.11
2023-05-01T01:41:22.518Z,10.13
2023-05-01T01:44:34.911Z,10.17
2023-05-01T01:47:41.209Z,10.21
2023-05-01T01:50:45.683Z,10.21
2023-05-01T01:53:52.242Z,10.21
2023-05-01T01:56:55.861Z,10.12
2023-05-01T01:59:58.899Z,10.23
2023-05-01T02:03:02.469Z,10.14
2023-05-01T02:06:06.111Z,10.33
2023-05-01T02:09:10.025Z,10.26
2023-05-01T02:12:14.418Z,10.12
2023-05-01T02:15:19.193Z,10.23
2023-05-01T02:18:22.341Z,10.38
2023-05-01T02:21:26.581Z,10.42
2023-05-01T02:24:31.158Z,10.30
2023-05-01T02:27:39.020Z,10.19
2023-05-01T02:30:41.802Z,10.25
2023-05-01T02:33:44.423Z,10.24
2023-05-01T02:36:47.442Z,10.08
2023-05-01T02:39:50.913Z,10.12
2023-05-01T02:42:53.548Z,10.31
2023-05-01T02:45:59.164Z,10.41
2023-05-01T02:49:03.428Z,10.27
2023-05-01T02:52:06.276Z,10.38
2023-05-01T02:55:09.448Z,10.56
2023-05-01T02:58:16.662Z,10.47
2023-05-01T03:01:19.837Z,10.52
2023-05-01T03:04:22.776Z,10.55
2023-05-01T03:07:25.460Z,10.33
2023-05-01T03:10:28.082Z,10.46
2023-05-01T03:13:31.089Z,10.35
2023-05-01T03:16:34.143Z,10.46
2023-05-01T03:19:37.584Z,10.32
2023-05-01T03:22:40.274Z,10.46
2023-05-01T03:25:42.885Z,10.47
2023-05-01T03:28:45.987Z,10.32
2023-05-01T03:31:48.964Z,10.29
2023-05-01T03:34:51.795Z,10.26
2023-05-01T03:37:56.591Z,10.12
2023-05-01T03:41:19.277Z,10.04
2023-05-01T03:44:21.949Z,9.95
2023-05-01T03:47:25.012Z,9.73
2023-05-01T03:50:27.667Z,9.55
2023-05-01T03:53:30.283Z,9.41
2023-05-01T03:56:35.888Z,9.38
2023-05-01T03:59:40.312Z,9.37
2023-05-01T04:02:43.252Z,9.18
2023-05-01T04:05:49.869Z,8.92
2023-05-01T04:08:52.421Z,8.89
2023-05-01T04:11:55.054Z,8.86
2023-05-01T04:14:57.679Z,8.80
2023-05-01T04:18:00.877Z,8.71
2023-05-01T04:21:03.856Z,8.67
2023-05-01T04:24:06.543Z,8.61
2023-05-01T04:27:09.472Z,8.69
2023-05-01T04:30:12.075Z,8.91
2023-05-01T04:33:14.680Z,8.94
2023-05-01T04:36:17.370Z,8.97
2023-05-01T04:39:20.986Z,8.92
2023-05-01T04:42:23.578Z,9.08
2023-05-01T04:45:26.667Z,9.30
2023-05-01T04:48:30.014Z,9.45
2023-05-01T04:51:32.762Z,9.52
2023-05-01T04:54:35.399Z,9.64
2023-05-01T04:57:38.028Z,9.85
2023-05-01T05:00:42.847Z,10.10
2023-05-01T05:03:50.536Z,10.35
2023-05-01T05:06:53.539Z,10.47
2023-05-01T05:10:03.653Z,10.59
2023-05-01T05:13:06.791Z,10.71
2023-05-01T05:16:09.745Z,10.82
2023-05-01T05:19:12.418Z,10.94
2023-05-01T05:22:17.774Z,10.88
2023-05-01T05:25:40.255Z,10.98
2023-05-01T05:28:43.004Z,10.91
2023-05-01T05:31:45.675Z,11.21
2023-05-01T05:34:48.468Z,11.24
2023-05-01T05:37:51.447Z,11.32
2023-05-01T05:40:55.275Z,11.47
2023-05-01T05:43:58.537Z,11.56
2023-05-01T05:47:01.330Z,11.68
2023-05-01T05:50:10.121Z,11.77
2023-05-01T05:53:13.999Z,11.83
2023-05-01T05:56:18.465Z,11.88
2023-05-01T05:59:21.634Z,12.08
2023-05-01T06:02:24.408Z,12.16
2023-05-01T06:05:27.887Z,11.98
2023-05-01T06:08:30.506Z,12.30
2023-05-01T06:11:33.063Z,12.35
2023-05-01T06:14:35.967Z,12.25
2023-05-01T06:17:38.685Z,12.32
2023-05-01T06:20:41.444Z,12.50
2023-05-01T06:23:44.064Z,12.62
2023-05-01T06:27:02.368Z,12.54
2023-05-01T06:30:05.689Z,12.67
2023-05-01T06:33:10.735Z,12.70
2023-05-01T06:36:14.765Z,12.60
2023-05-01T06:39:17.307Z,12.60
2023-05-01T06:42:21.645Z,12.96
2023-05-01T06:45:24.225Z,12.95
2023-05-01T06:48:26.851Z,13.14
2023-05-01T06:51:30.459Z,13.29
2023-05-01T06:54:33.129Z,13.39
2023-05-01T06:57:35.812Z,13.43
2023-05-01T07:00:38.555Z,13.53
2023-05-01T07:03:41.353Z,13.67
2023-05-01T07:06:44.025Z,13.81
2023-05-01T07:09:46.557Z,13.93
2023-05-01T07:12:49.180Z,13.91
2023-05-01T07:15:53.823Z,14.27
2023-05-01T07:18:57.397Z,14.32
2023-05-01T07:21:59.968Z,14.28
2023-05-01T07:25:03.690Z,14.28
2023-05-01T07:28:08.295Z,14.39
2023-05-01T07:31:11.041Z,14.35
2023-05-01T07:34:14.181Z,14.30
2023-05-01T07:37:16.923Z,14.39
2023-05-01T07:40:19.590Z,14.28
2023-05-01T07:43:22.366Z,14.60
2023-05-01T07:46:25.175Z,14.89
2023-05-01T07:49:27.848Z,14.74
2023-05-01T07:52:31.797Z,14.90
2023-05-01T07:55:34.431Z,15.06
2023-05-01T07:58:37.783Z,15.45
2023-05-01T08:01:41.406Z,15.58
2023-05-01T08:04:44.067Z,15.67
2023-05-01T08:07:46.735Z,15.81
2023-05-01T08:10:49.326Z,15.89
2023-05-01T08:13:52.156Z,16.00
2023-05-01T08:16:55.646Z,16.18
2023-05-01T08:19:58.603Z,16.20
2023-05-01T08:23:01.677Z,16.09
2023-05-01T08:26:04.293Z,16.20
2023-05-01T08:29:06.903Z,16.45
2023-05-01T08:32:09.630Z,16.76
2023-05-01T08:35:12.291Z,16.59
2023-05-01T08:38:14.919Z,16.67
2023-05-01T08:41:21.552Z,16.64
2023-05-01T08:44:28.682Z,16.65
2023-05-01T08:47:31.333Z,16.74
2023-05-01T08:50:39.038Z,16.60
2023-05-01T08:53:42.179Z,16.66
2023-05-01T08:56:46.783Z,16.73
2023-05-01T08:59:51.207Z,16.79
2023-05-01T09:02:54.424Z,16.98
2023-05-01T09:05:57.549Z,16.92
2023-05-01T09:09:01.559Z,17.06
2023-05-01T09:12:22.150Z,17.26
2023-05-01T09:15:27.112Z,17.37
2023-05-01T09:18:31.385Z,17.08
2023-05-01T09:21:33.965Z,17.40
2023-05-01T09:24:36.845Z,17.35
2023-05-01T09:27:39.502Z,17.55
2023-05-01T09:30:42.378Z,17.82
2023-05-01T09:33:58.687Z,17.89
2023-05-01T09:37:01.321Z,17.75
2023-05-01T09:40:14.236Z,17.49
2023-05-01T09:43:35.118Z,17.74
2023-05-01T09:46:43.076Z,17.80
2023-05-01T09:49:48.321Z,18.17
2023-05-01T09:52:52.742Z,18.34
2023-05-01T09:56:02.303Z,18.14
2023-05-01T09:59:20.240Z,18.02
2023-05-01T10:02:32.516Z,18.02
2023-05-01T10:05:44.719Z,17.73
2023-05-01T10:08:50.776Z,17.98
2023-05-01T10:11:59.542Z,18.11
2023-05-01T10:15:17.379Z,18.14
2023-05-01T10:18:27.856Z,18.44
2023-05-01T10:21:32.939Z,18.56
2023-05-01T10:24:37.270Z,18.51
2023-05-01T10:27:43.312Z,18.52
2023-05-01T10:30:46.036Z,18.98
2023-05-01T10:33:48.749Z,19.09
2023-05-01T10:36:57.657Z,18.75
2023-05-01T10:40:00.449Z,18.99
2023-05-01T10:43:28.994Z,19.54
2023-05-01T10:46:31.967Z,19.37
2023-05-01T10:50:09.779Z,19.33
2023-05-01T10:53:12.472Z,19.41
2023-05-01T10:56:38.280Z,19.55
2023-05-01T10:59:59.252Z,19.89
2023-05-01T11:03:23.640Z,19.90
2023-05-01T11:06:26.759Z,19.89
2023-05-01T11:09:55.951Z,19.77
2023-05-01T11:12:58.892Z,20.21
2023-05-01T11:16:27.645Z,20.07
2023-05-01T11:19:36.413Z,20.32
2023-05-01T11:22:49.108Z,20.29
2023-05-01T11:26:03.761Z,20.08
2023-05-01T11:29:07.422Z,20.22
2023-05-01T11:32:10.988Z,20.02
2023-05-01T11:35:27.362Z,20.37
2023-05-01T11:38:29.974Z,20.29
2023-05-01T11:41:32.565Z,20.59
2023-05-01T11:44:35.216Z,20.82
2023-05-01T11:47:41.513Z,20.84
2023-05-01T11:50:44.239Z,20.91
2023-05-01T11:54:03.282Z,20.94
2023-05-01T11:57:05.840Z,21.03
2023-05-01T12:00:10.161Z,21.26
2023-05-01T12:03:15.701Z,21.35
2023-05-01T12:06:18.579Z,21.34
2023-05-01T12:09:23.125Z,21.42
2023-05-01T12:12:26.566Z,21.63
2023-05-01T12:15:29.372Z,21.77
2023-05-01T12:18:32.064Z,21.88
2023-05-01T12:21:36.768Z,21.88
2023-05-01T12:24:48.520Z,21.56
2023-05-01T12:27:51.085Z,21.62
2023-05-01T12:30:57.795Z,21.97
2023-05-01T12:34:02.695Z,21.86
2023-05-01T12:37:05.569Z,21.84
2023-05-01T12:40:13.891Z,22.22
2023-05-01T12:43:16.862Z,22.26
2023-05-01T12:46:19.469Z,22.39
2023-05-01T12:49:23.332Z,22.76
2023-05-01T12:52:27.813Z,22.99
2023-05-01T12:55:30.576Z,22.93
2023-05-01T12:58:39.229Z,23.27
2023-05-01T13:01:41.891Z,22.76
2023-05-01T13:04:45.331Z,22.97
2023-05-01T13:07:49.646Z,22.80
2023-05-01T13:10:55.284Z,23.25
2023-05-01T13:14:07.790Z,23.89
2023-05-01T13:17:11.887Z,23.86
2023-05-01T13:20:15.649Z,23.70
2023-05-01T13:23:18.392Z,24.05
2023-05-01T13:26:33.051Z,24.11
2023-05-01T13:29:36.440Z,24.03
2023-05-01T13:32:41.400Z,25.94
2023-05-01T13:35:44.026Z,28.70
2023-05-01T13:38:50.231Z,29.04
2023-05-01T13:41:53.516Z,28.17
2023-05-01T13:44:57.672Z,27.63
2023-05-01T13:48:00.331Z,27.76
2023-05-01T13:51:03.045Z,27.94
2023-05-01T13:54:07.651Z,27.92
2023-05-01T13:57:10.785Z,28.44
2023-05-01T14:00:17.888Z,29.45
2023-05-01T14:03:21.083Z,28.63
2023-05-01T14:06:26.461Z,28.86
2023-05-01T14:09:29.320Z,28.51
2023-05-01T14:12:32.767Z,28.14
2023-05-01T14:15:35.562Z,29.50
2023-05-01T14:18:45.922Z,29.05
2023-05-01T14:21:48.593Z,28.90
2023-05-01T14:24:51.273Z,28.61
2023-05-01T14:27:55.084Z,30.01
2023-05-01T14:30:57.833Z,30.00
2023-05-01T14:34:03.001Z,30.20
2023-05-01T14:37:05.859Z,31.14
2023-05-01T14:40:15.196Z,30.82
2023-05-01T14:43:19.568Z,29.72
2023-05-01T14:46:31.513Z,29.02
2023-05-01T14:49:34.473Z,28.65
2023-05-01T14:52:37.203Z,30.23
2023-05-01T14:55:41.492Z,28.23
2023-05-01T14:58:44.122Z,29.87
2023-05-01T15:01:46.741Z,29.83
2023-05-01T15:04:49.370Z,29.59
2023-05-01T15:07:57.811Z,29.31
2023-05-01T15:11:00.778Z,29.24
2023-05-01T15:14:04.249Z,27.97
2023-05-01T15:17:06.976Z,30.14
2023-05-01T15:20:10.751Z,29.30
2023-05-01T15:23:13.321Z,29.82
2023-05-01T15:26:16.965Z,29.66
2023-05-01T15:29:19.683Z,29.37
2023-05-01T15:32:22.417Z,28.33
2023-05-01T15:35:26.236Z,27.34
2023-05-01T15:38:28.841Z,25.39
2023-05-01T15:41:31.485Z,25.08
2023-05-01T15:44:34.068Z,24.39
2023-05-01T15:47:36.840Z,24.03
2023-05-01T15:50:39.694Z,24.08
2023-05-01T15:53:42.484Z,23.60
2023-05-01T15:56:45.539Z,23.56
2023-05-01T15:59:51.434Z,23.76
2023-05-01T16:02:54.073Z,24.14
2023-05-01T16:05:57.387Z,24.69
2023-05-01T16:09:00.288Z,25.33
2023-05-01T16:12:03.521Z,25.39
2023-05-01T16:15:06.565Z,25.49
2023-05-01T16:18:10.179Z,25.21
2023-05-01T16:21:19.178Z,24.59
2023-05-01T16:24:22.430Z,24.11
2023-05-01T16:27:25.063Z,23.63
2023-05-01T16:30:28.345Z,23.40
2023-05-01T16:33:32.427Z,22.86
2023-05-01T16:36:36.884Z,22.64
2023-05-01T16:39:39.451Z,22.33
2023-05-01T16:42:42.562Z,21.65
2023-05-01T16:45:46.737Z,21.94
2023-05-01T16:48:49.404Z,21.47
2023-05-01T16:51:56.748Z,21.07
2023-05-01T16:54:59.620Z,21.20
2023-05-01T16:58:02.238Z,21.19
2023-05-01T17:01:04.925Z,20.99
2023-05-01T17:04:08.262Z,20.23
2023-05-01T17:07:11.189Z,20.13
2023-05-01T17:10:13.740Z,20.04
2023-05-01T17:13:16.583Z,19.66
2023-05-01T17:16:19.732Z,19.53
2023-05-01T17:19:22.505Z,19.08
2023-05-01T17:22:26.659Z,18.95
2023-05-01T17:25:30.476Z,18.53
2023-05-01T17:28:33.119Z,18.15
2023-05-01T17:31:36.586Z,17.52
2023-05-01T17:34:39.245Z,17.52
2023-05-01T17:37:41.830Z,17.17
2023-05-01T17:40:44.883Z,17.05
2023-05-01T17:43:47.709Z,16.83
2023-05-01T17:46:50.322Z,16.52
2023-05-01T17:49:53.097Z,16.21
2023-05-01T17:52:56.748Z,16.13
2023-05-01T17:55:59.326Z,15.91
2023-05-01T17:59:01.986Z,15.83
2023-05-01T18:02:04.929Z,15.67
2023-05-01T18:05:08.033Z,15.51
2023-05-01T18:08:10.997Z,15.29
2023-05-01T18:11:13.675Z,15.34
2023-05-01T18:14:16.887Z,14.94
2023-05-01T18:17:22.381Z,14.87
2023-05-01T18:20:25.727Z,14.86
2023-05-01T18:23:28.447Z,14.51
2023-05-01T18:26:31.330Z,14.70
2023-05-01T18:29:33.926Z,14.64
2023-05-01T18:32:47.664Z,14.55
2023-05-01T18:35:51.782Z,14.43
2023-05-01T18:38:55.245Z,14.34
2023-05-01T18:41:57.873Z,14.23
2023-05-01T18:45:00.567Z,14.17
2023-05-01T18:48:03.914Z,14.03
2023-05-01T18:51:08.859Z,13.93
2023-05-01T18:54:14.075Z,13.85
2023-05-01T18:57:17.333Z,13.95
2023-05-01T19:00:21.602Z,13.96
2023-05-01T19:03:24.465Z,13.97
2023-05-01T19:06:27.600Z,13.74
2023-05-01T19:09:30.422Z,13.87
2023-05-01T19:12:33.078Z,13.88
2023-05-01T19:15:36.383Z,13.70
2023-05-01T19:18:39.257Z,13.72
2023-05-01T19:21:42.182Z,13.70
2023-05-01T19:24:44.997Z,13.90
2023-05-01T19:27:47.954Z,13.97
2023-05-01T19:30:50.860Z,13.95
2023-05-01T19:33:56.815Z,13.91
2023-05-01T19:37:02.066Z,13.79
2023-05-01T19:40:06.483Z,13.88
2023-05-01T19:43:09.345Z,14.02
2023-05-01T19:46:12.277Z,14.00
2023-05-01T19:49:15.091Z,13.71
2023-05-01T19:52:17.875Z,13.72
2023-05-01T19:55:20.673Z,13.65
2023-05-01T19:58:23.687Z,13.66
2023-05-01T20:01:26.480Z,13.26
2023-05-01T20:04:29.302Z,13.59
2023-05-01T20:07:32.164Z,13.43
2023-05-01T20:10:34.770Z,13.15
2023-05-01T20:13:37.457Z,13.08
2023-05-01T20:16:40.552Z,12.92
2023-05-01T20:19:43.349Z,12.98
2023-05-01T20:22:46.875Z,12.98
2023-05-01T20:25:51.898Z,12.94
2023-05-01T20:28:54.776Z,12.67
2023-05-01T20:31:59.192Z,12.89
2023-05-01T20:35:01.885Z,12.69
2023-05-01T20:38:07.300Z,12.74
2023-05-01T20:41:10.380Z,12.65
2023-05-01T20:44:13.008Z,12.52
2023-05-01T20:47:15.588Z,12.58
2023-05-01T20:50:18.252Z,12.71
2023-05-01T20:53:20.925Z,12.46
2023-05-01T20:56:23.967Z,12.41
2023-05-01T20:59:26.562Z,12.24
2023-05-01T21:02:29.397Z,12.18
2023-05-01T21:05:32.116Z,11.95
2023-05-01T21:08:34.814Z,12.10
2023-05-01T21:11:40.220Z,12.09
2023-05-01T21:14:42.849Z,11.89
2023-05-01T21:17:45.566Z,11.85
2023-05-01T21:20:48.961Z,11.72
2023-05-01T21:23:51.678Z,11.76
2023-05-01T21:26:54.844Z,11.66
2023-05-01T21:29:59.676Z,11.48
2023-05-01T21:33:05.834Z,10.98
2023-05-01T21:36:10.491Z,11.12
2023-05-01T21:39:13.091Z,11.13
2023-05-01T21:42:16.013Z,11.12
2023-05-01T21:45:20.284Z,11.06
2023-05-01T21:48:23.030Z,10.99
2023-05-01T21:51:29.744Z,10.95
2023-05-01T21:54:34.845Z,10.64
2023-05-01T21:57:38.904Z,10.50
2023-05-01T22:00:41.913Z,10.51
2023-05-01T22:03:46.536Z,10.51
2023-05-01T22:06:50.058Z,10.65
2023-05-01T22:09:52.895Z,10.41
2023-05-01T22:12:55.656Z,10.37
2023-05-01T22:15:58.218Z,10.31
2023-05-01T22:19:00.839Z,10.19
2023-05-01T22:22:03.529Z,10.27
2023-05-01T22:25:07.079Z,10.09
2023-05-01T22:28:09.797Z,10.05
2023-05-01T22:31:12.374Z,10.18
2023-05-01T22:34:15.003Z,10.03
2023-05-01T22:37:19.089Z,10.03
2023-05-01T22:40:21.869Z,9.84
2023-05-01T22:43:24.803Z,9.64
2023-05-01T22:46:27.445Z,9.71
2023-05-01T22:49:30.338Z,9.75
2023-05-01T22:52:32.981Z,9.77
2023-05-01T22:55:35.813Z,9.86
2023-05-01T22:58:38.681Z,9.86
2023-05-01T23:01:41.363Z,9.94
2023-05-01T23:04:44.337Z,9.97
2023-05-01T23:07:46.961Z,9.86
2023-05-01T23:10:49.591Z,9.74
2023-05-01T23:13:52.438Z,9.98
2023-05-01T23:16:55.236Z,9.95
2023-05-01T23:19:58.945Z,10.06
2023-05-01T23:23:05.366Z,10.03
2023-05-01T23:26:07.892Z,9.96
2023-05-01T23:29:11.710Z,10.09
2023-05-01T23:32:30.210Z,10.17
2023-05-01T23:35:32.857Z,9.99
2023-05-01T23:38:35.464Z,10.13
2023-05-01T23:41:38.160Z,10.06
2023-05-01T23:44:40.920Z,10.12
2023-05-01T23:47:43.563Z,10.17
2023-05-01T23:50:46.383Z,9.85
2023-05-01T23:53:49.138Z,10.11
2023-05-01T23:56:51.974Z,9.77
2023-05-01T23:59:54.604Z,9.90
